Carefree, Indiana
Current Conditions -  °F | °C
As of 3:58 AM on Saturday 29 Nov 2014 (Local Time) from KFTK Reporting Station
Clear Clear  
Wind Chill: 31°   Ceiling: Unl
Heat Index: 38°   Visibility: 10mi
Dew Point: 24°   Wind: 10mph
Humidity: 58%   Direction: 190°S
Pressure: 30.03"   Gusts: NA
Location:  38.1914°N, 86.3619°W
Report Text: KFTK 290858Z AUTO 19009KT 10SM CLR 03/M04 A3003 RMK AO2 SLP176 T00341042 58005
Loading
Personal Weather Stations






























Interactive Weather Map New forecast layout! Learn more

10-Day Weather Forecast

Advertisements
Track Severe Weather on mobile